Time;durP1;ratioP1;P1;durP2;ratioP2;P2;SDS_P1;SDS_P2;PMS_P1;PMS_P2;Temp;Humidity;BMP_temperature;BMP_pressure;BME280_temperature;BME280_humidity;BME280_pressure;Samples;Min_cycle;Max_cycle;Signal;HPM_P1;HPM_P2
2021/07/30 00:00:08;;;;;;;6.30;2.55;;;;;;;14.50;58.51;101063.47;5038598;28;20034;-74
2021/07/30 00:02:34;;;;;;;3.67;2.25;;;;;;;14.42;59.02;101066.66;5037099;28;20029;-74
2021/07/30 00:04:59;;;;;;;8.38;2.70;;;;;;;14.40;59.07;101060.72;5035615;28;20033;-74
2021/07/30 00:07:26;;;;;;;4.22;2.28;;;;;;;14.30;59.17;101065.25;5037419;28;20025;-74
2021/07/30 00:09:52;;;;;;;6.07;2.92;;;;;;;14.11;60.08;101049.56;5033793;28;20024;-73
2021/07/30 00:12:18;;;;;;;5.63;2.53;;;;;;;14.15;59.77;101064.13;5036454;28;20044;-74
2021/07/30 00:14:43;;;;;;;4.45;2.63;;;;;;;14.06;60.17;101052.25;5033735;28;20647;-74
2021/07/30 00:17:09;;;;;;;4.72;2.40;;;;;;;14.05;60.14;101047.94;5032305;28;20495;-74
2021/07/30 00:19:34;;;;;;;7.10;2.58;;;;;;;14.01;60.12;101046.84;5036434;28;20033;-74
2021/07/30 00:22:00;;;;;;;4.07;2.97;;;;;;;14.03;60.24;101049.28;5033286;28;20043;-74
2021/07/30 00:24:25;;;;;;;5.10;2.80;;;;;;;13.95;60.40;101047.06;5029033;28;20025;-74
2021/07/30 00:26:51;;;;;;;7.55;3.00;;;;;;;13.90;60.94;101045.19;5033950;28;20112;-74
2021/07/30 00:29:17;;;;;;;5.65;2.70;;;;;;;13.82;61.28;101045.66;5036302;28;20479;-74
2021/07/30 00:31:43;;;;;;;5.90;2.92;;;;;;;13.83;61.05;101047.31;5033924;28;20072;-74
2021/07/30 00:34:08;;;;;;;5.88;2.60;;;;;;;13.83;61.07;101047.31;5039129;28;20033;-74
2021/07/30 00:36:34;;;;;;;6.72;2.40;;;;;;;13.76;61.31;101055.59;5035133;28;20088;-74
2021/07/30 00:38:59;;;;;;;10.38;2.83;;;;;;;13.83;61.02;101055.38;5036247;28;20030;-74
2021/07/30 00:41:25;;;;;;;6.53;3.03;;;;;;;13.77;61.30;101059.13;5037629;28;20073;-73
2021/07/30 00:43:50;;;;;;;6.28;3.20;;;;;;;13.78;60.84;101064.22;5014422;28;20041;-74
2021/07/30 00:46:16;;;;;;;5.97;2.63;;;;;;;13.81;61.06;101052.13;5029097;28;20017;-74
2021/07/30 00:48:43;;;;;;;8.18;2.90;;;;;;;13.77;61.43;101051.84;5040044;28;20063;-74
2021/07/30 00:51:08;;;;;;;7.50;2.72;;;;;;;13.75;61.51;101051.28;5030454;28;20032;-74
2021/07/30 00:53:34;;;;;;;5.18;2.70;;;;;;;13.75;61.53;101045.09;5038505;28;20033;-74
2021/07/30 00:56:00;;;;;;;7.65;2.70;;;;;;;13.63;62.29;101044.50;5030846;28;20060;-73
2021/07/30 00:58:28;;;;;;;6.93;2.72;;;;;;;13.61;62.29;101048.25;5035608;28;20071;-74
2021/07/30 01:00:54;;;;;;;4.13;3.03;;;;;;;13.56;62.44;101053.63;5034331;28;20025;-74
2021/07/30 01:03:20;;;;;;;5.95;2.90;;;;;;;13.56;62.85;101042.84;5033062;28;20541;-74
2021/07/30 01:05:46;;;;;;;4.80;2.70;;;;;;;13.57;62.89;101043.66;5040429;28;20025;-73
2021/07/30 01:08:11;;;;;;;5.57;3.13;;;;;;;13.44;63.70;101046.81;5032241;28;20393;-74
2021/07/30 01:10:37;;;;;;;5.13;2.78;;;;;;;13.37;63.94;101049.72;5041248;28;20487;-73
2021/07/30 01:13:02;;;;;;;4.00;2.70;;;;;;;13.40;63.95;101046.50;5030691;28;20032;-74
2021/07/30 01:15:28;;;;;;;5.57;2.40;;;;;;;13.40;63.79;101041.13;5037326;28;20040;-73
2021/07/30 01:17:53;;;;;;;5.97;3.38;;;;;;;13.34;65.09;101041.38;5032974;28;20034;-73
2021/07/30 01:20:23;;;;;;;7.75;3.40;;;;;;;13.41;64.12;101034.69;5033507;28;20018;-73
2021/07/30 01:22:53;;;;;;;3.22;2.85;;;;;;;13.38;64.31;101037.88;5039437;28;20025;-73
2021/07/30 01:25:20;;;;;;;5.30;3.55;;;;;;;13.36;64.38;101033.84;5031782;28;20057;-73
2021/07/30 01:27:46;;;;;;;4.97;3.10;;;;;;;13.34;64.53;101026.03;5038778;28;20025;-73
2021/07/30 01:30:13;;;;;;;4.25;3.35;;;;;;;13.22;65.37;101030.78;5031000;28;20373;-73
2021/07/30 01:32:38;;;;;;;5.75;2.70;;;;;;;13.22;65.14;101030.78;5022782;28;20020;-73
2021/07/30 01:35:04;;;;;;;5.53;2.83;;;;;;;13.18;65.11;101029.69;5041456;28;20044;-73
2021/07/30 01:37:31;;;;;;;5.53;3.40;;;;;;;13.09;65.51;101023.94;5038784;28;20467;-73
2021/07/30 01:39:57;;;;;;;8.60;3.47;;;;;;;12.94;66.27;101027.34;5040256;28;20112;-73
2021/07/30 01:42:23;;;;;;;4.78;3.05;;;;;;;12.88;66.26;101024.84;5035874;28;20112;-73
2021/07/30 01:44:50;;;;;;;10.10;3.47;;;;;;;12.86;66.58;101025.09;5023602;28;20029;-73
2021/07/30 01:47:16;;;;;;;7.20;3.38;;;;;;;12.77;67.11;101018.56;5037080;28;20483;-73
2021/07/30 01:49:41;;;;;;;6.03;3.38;;;;;;;12.67;67.71;101021.97;5041401;28;20063;-73
2021/07/30 01:52:07;;;;;;;5.75;3.47;;;;;;;12.63;67.96;101020.88;5044423;28;20036;-73
2021/07/30 01:54:32;;;;;;;5.15;3.40;;;;;;;12.62;69.08;101023.81;5040094;28;20033;-73
2021/07/30 01:56:57;;;;;;;8.00;3.60;;;;;;;12.77;67.68;101023.16;5024692;28;20068;-73
2021/07/30 01:59:23;;;;;;;5.03;2.90;;;;;;;12.84;67.59;101031.81;5038390;28;20040;-73
2021/07/30 02:01:48;;;;;;;4.97;3.10;;;;;;;12.75;67.72;101034.16;5047189;28;20044;-73
2021/07/30 02:04:14;;;;;;;5.20;3.30;;;;;;;12.72;67.60;101037.34;5044842;28;20041;-73
2021/07/30 02:06:43;;;;;;;8.18;3.40;;;;;;;12.75;67.90;101027.94;5039382;28;20428;-73
2021/07/30 02:09:09;;;;;;;4.57;3.30;;;;;;;12.76;67.93;101034.97;5041406;28;20029;-72
2021/07/30 02:11:34;;;;;;;7.93;3.53;;;;;;;12.82;67.61;101036.63;5045297;28;20031;-73
2021/07/30 02:14:15;;;;;;;5.10;3.08;;;;;;;12.84;67.52;101040.69;5039882;28;20029;-73
2021/07/30 02:16:48;;;;;;;13.63;3.58;;;;;;;12.83;67.59;101039.06;5029210;28;20124;-73
2021/07/30 02:19:16;;;;;;;3.28;2.90;;;;;;;12.84;67.49;101043.38;5039357;28;20025;-73
2021/07/30 02:21:42;;;;;;;4.88;3.20;;;;;;;12.81;67.83;101049.25;5023396;28;20411;-73
2021/07/30 02:24:08;;;;;;;5.80;3.42;;;;;;;12.63;68.47;101042.38;5041325;28;20028;-73
2021/07/30 02:26:34;;;;;;;12.65;3.90;;;;;;;12.71;67.93;101049.97;5036542;28;20184;-73
2021/07/30 02:28:59;;;;;;;8.07;3.25;;;;;;;12.75;67.63;101047.59;5038195;28;20026;-73
2021/07/30 02:31:25;;;;;;;8.90;3.42;;;;;;;12.73;67.48;101046.22;5039865;28;20483;-73
2021/07/30 02:33:51;;;;;;;6.13;3.42;;;;;;;12.60;68.06;101050.13;5037571;28;20079;-73
2021/07/30 02:36:17;;;;;;;4.55;3.47;;;;;;;12.60;67.77;101045.56;5034745;28;20017;-73
2021/07/30 02:38:43;;;;;;;8.63;3.30;;;;;;;12.60;67.71;101042.06;5036745;28;20036;-73
2021/07/30 02:41:08;;;;;;;7.43;3.30;;;;;;;12.57;67.50;101048.78;5040120;28;20017;-73
2021/07/30 02:43:34;;;;;;;7.22;3.45;;;;;;;12.58;67.63;101049.59;5036075;28;20037;-73
2021/07/30 02:46:00;;;;;;;5.03;2.95;;;;;;;12.57;67.56;101051.47;5020207;28;20431;-73
2021/07/30 02:48:25;;;;;;;6.95;3.35;;;;;;;12.57;67.44;101053.34;5041705;28;20372;-73
2021/07/30 02:50:51;;;;;;;7.15;3.47;;;;;;;12.52;67.66;101053.25;5041616;28;20435;-73
2021/07/30 02:53:16;;;;;;;5.80;3.78;;;;;;;12.47;67.61;101053.22;5045441;28;20021;-73
2021/07/30 02:55:42;;;;;;;7.63;3.50;;;;;;;12.46;67.74;101051.59;5030728;28;20021;-73
2021/07/30 02:58:07;;;;;;;6.85;3.85;;;;;;;12.43;67.64;101052.94;5035544;28;20025;-73
2021/07/30 03:00:33;;;;;;;8.70;3.47;;;;;;;12.43;67.49;101050.22;5043632;28;20025;-73
2021/07/30 03:02:58;;;;;;;5.88;3.15;;;;;;;12.34;68.12;101051.72;5036335;28;20559;-73
2021/07/30 03:05:24;;;;;;;6.63;3.95;;;;;;;12.44;67.99;101056.41;5040583;28;20017;-73
2021/07/30 03:07:49;;;;;;;7.97;3.90;;;;;;;12.27;68.75;101053.81;5035072;28;20031;-73
2021/07/30 03:10:14;;;;;;;7.68;4.30;;;;;;;12.27;68.81;101051.94;5027442;28;20391;-73
2021/07/30 03:12:40;;;;;;;9.05;4.10;;;;;;;12.19;68.87;101057.75;5047210;28;20039;-73
2021/07/30 03:15:06;;;;;;;4.70;4.20;;;;;;;12.23;68.77;101058.06;5033648;28;20126;-73
2021/07/30 03:17:31;;;;;;;9.63;4.25;;;;;;;12.25;68.82;101054.06;5043526;28;20032;-73
2021/07/30 03:19:57;;;;;;;10.73;4.72;;;;;;;12.24;68.91;101048.94;5039467;28;20035;-73
2021/07/30 03:22:22;;;;;;;4.53;3.92;;;;;;;12.18;69.36;101050.75;5045892;28;20025;-72
2021/07/30 03:24:48;;;;;;;7.15;4.72;;;;;;;12.19;69.21;101056.94;5034407;28;20092;-73
2021/07/30 03:27:13;;;;;;;5.28;3.88;;;;;;;12.15;69.59;101053.94;5037548;28;20032;-73
2021/07/30 03:29:38;;;;;;;6.85;3.75;;;;;;;12.13;70.03;101048.00;5040086;28;20032;-73
2021/07/30 03:32:05;;;;;;;7.60;3.78;;;;;;;12.13;70.15;101053.38;5029903;28;20025;-73
2021/07/30 03:34:33;;;;;;;5.68;3.95;;;;;;;12.10;69.97;101046.66;5034761;28;20479;-73
2021/07/30 03:37:00;;;;;;;5.05;3.90;;;;;;;12.14;70.11;101046.94;5033826;28;20037;-73
2021/07/30 03:39:26;;;;;;;6.03;3.72;;;;;;;12.21;69.83;101044.06;5039497;28;20021;-73
2021/07/30 03:41:52;;;;;;;7.72;4.82;;;;;;;12.21;70.17;101042.22;5034698;28;20040;-73
2021/07/30 03:44:17;;;;;;;6.10;4.00;;;;;;;12.29;70.10;101049.81;5037453;28;20021;-73
2021/07/30 03:46:43;;;;;;;8.00;3.83;;;;;;;12.33;70.23;101053.59;5038928;28;20029;-73
2021/07/30 03:49:08;;;;;;;5.63;4.13;;;;;;;12.18;71.47;101042.69;5038322;28;20021;-73
2021/07/30 03:51:33;;;;;;;10.70;5.05;;;;;;;11.92;73.13;101048.84;5038192;28;20021;-73
2021/07/30 03:53:59;;;;;;;8.25;4.45;;;;;;;11.79;73.85;101056.19;5038830;28;20032;-73
2021/07/30 03:56:24;;;;;;;6.28;4.30;;;;;;;11.89;73.70;101052.03;5031254;28;20029;-73
2021/07/30 03:58:50;;;;;;;7.25;4.50;;;;;;;11.93;73.30;101047.75;5039162;28;20021;-73
2021/07/30 04:01:15;;;;;;;10.57;4.57;;;;;;;12.13;72.08;101036.47;5035388;28;20068;-73
2021/07/30 04:03:42;;;;;;;7.75;4.30;;;;;;;12.03;73.54;101045.22;5037092;28;20020;-73
2021/07/30 04:06:08;;;;;;;6.50;4.45;;;;;;;12.07;73.88;101046.34;5037801;28;20373;-73
2021/07/30 04:08:34;;;;;;;7.75;4.10;;;;;;;12.15;73.24;101050.44;5034290;28;20116;-73
2021/07/30 04:11:01;;;;;;;4.35;3.95;;;;;;;12.28;72.20;101052.75;5029713;28;20395;-73
2021/07/30 04:13:27;;;;;;;5.03;4.20;;;;;;;12.42;71.75;101050.50;5035536;28;20021;-73
2021/07/30 04:15:52;;;;;;;7.78;4.05;;;;;;;12.43;72.13;101046.75;5040685;28;20056;-73
2021/07/30 04:18:18;;;;;;;6.75;3.70;;;;;;;12.55;71.58;101044.69;5031152;28;20415;-74
2021/07/30 04:20:43;;;;;;;10.90;4.10;;;;;;;12.71;70.87;101044.59;5036755;28;20025;-74
2021/07/30 04:23:09;;;;;;;4.90;3.97;;;;;;;12.76;70.91;101041.16;5028780;28;20036;-74
2021/07/30 04:25:40;;;;;;;6.40;4.07;;;;;;;12.97;70.01;101039.44;5038293;28;20036;-75
2021/07/30 04:28:06;;;;;;;5.00;3.50;;;;;;;13.12;69.42;101041.44;5037395;28;20025;-75
2021/07/30 04:30:31;;;;;;;5.47;3.83;;;;;;;13.27;68.90;101037.00;5032326;28;20480;-75
2021/07/30 04:32:57;;;;;;;7.95;3.50;;;;;;;13.45;68.20;101038.47;5040060;28;20471;-74
2021/07/30 04:35:22;;;;;;;6.20;3.42;;;;;;;13.61;67.35;101045.56;5025923;28;20380;-75
2021/07/30 04:37:47;;;;;;;5.30;2.85;;;;;;;13.78;66.76;101045.38;5040792;28;20029;-75
2021/07/30 04:40:13;;;;;;;7.95;3.60;;;;;;;13.86;66.26;101044.09;5037046;28;20032;-75
2021/07/30 04:42:39;;;;;;;8.10;3.25;;;;;;;13.98;66.04;101047.34;5034800;28;20035;-74
2021/07/30 04:45:04;;;;;;;6.78;3.45;;;;;;;14.09;65.69;101046.34;5021429;28;20874;-75
2021/07/30 04:47:30;;;;;;;6.38;3.08;;;;;;;14.25;65.09;101049.09;5039553;28;20510;-74
2021/07/30 04:49:55;;;;;;;4.90;3.08;;;;;;;14.37;64.61;101046.97;5037931;28;20058;-74
2021/07/30 04:52:21;;;;;;;7.75;3.58;;;;;;;14.49;64.09;101047.56;5034822;28;20063;-74
2021/07/30 04:54:46;;;;;;;6.70;2.92;;;;;;;14.59;63.83;101052.16;5037897;28;20112;-73
2021/07/30 04:57:12;;;;;;;11.18;3.10;;;;;;;14.68;63.56;101050.53;5039737;28;20092;-73
2021/07/30 04:59:37;;;;;;;8.95;3.38;;;;;;;14.79;63.09;101046.78;5035390;28;20029;-73
2021/07/30 05:02:03;;;;;;;5.30;3.05;;;;;;;14.89;62.70;101045.97;5040051;28;20115;-73
2021/07/30 05:04:28;;;;;;;8.18;3.22;;;;;;;14.94;62.50;101046.00;5037247;28;20028;-73
2021/07/30 05:06:54;;;;;;;8.07;3.45;;;;;;;15.06;62.18;101046.53;5021937;28;20040;-74
2021/07/30 05:09:20;;;;;;;6.00;2.78;;;;;;;15.20;61.83;101044.09;5032609;28;20647;-74
2021/07/30 05:11:45;;;;;;;4.85;2.90;;;;;;;15.28;61.57;101043.56;5036449;28;20037;-74
2021/07/30 05:14:11;;;;;;;5.45;2.92;;;;;;;15.40;61.16;101044.88;5069223;22;20601;-74
2021/07/30 05:16:36;;;;;;;8.50;3.00;;;;;;;15.45;60.78;101033.28;5060109;28;20131;-74
2021/07/30 05:19:02;;;;;;;5.20;3.08;;;;;;;15.51;60.73;101037.56;5058535;28;21193;-74
2021/07/30 05:21:27;;;;;;;5.65;3.30;;;;;;;15.50;61.04;101035.94;5059040;28;20456;-75
2021/07/30 05:23:53;;;;;;;9.80;3.42;;;;;;;15.68;60.43;101035.38;5062267;28;20024;-75
2021/07/30 05:26:18;;;;;;;6.13;3.53;;;;;;;15.75;60.50;101035.09;5080163;22;20075;-72
2021/07/30 05:28:44;;;;;;;5.13;2.92;;;;;;;15.93;60.03;101034.47;5078517;28;20027;-71
2021/07/30 05:31:15;;;;;;;5.75;2.67;;;;;;;16.10;59.57;101036.84;5075842;28;20032;-72
2021/07/30 05:33:40;;;;;;;4.30;3.08;;;;;;;16.23;59.43;101043.53;5043491;28;20128;-71
2021/07/30 05:36:06;;;;;;;5.97;2.95;;;;;;;16.33;58.72;101035.38;5061944;28;20673;-72
2021/07/30 05:41:01;;;;;;;5.53;3.08;;;;;;;16.42;58.67;101044.53;5063907;28;20540;-75
2021/07/30 05:43:26;;;;;;;6.07;3.03;;;;;;;16.49;59.02;101041.50;5066769;28;20139;-75
2021/07/30 05:45:52;;;;;;;5.90;2.97;;;;;;;16.66;58.48;101049.22;5066559;28;20496;-75
2021/07/30 05:48:17;;;;;;;5.40;3.13;;;;;;;16.80;58.30;101042.13;5049421;28;20441;-74
2021/07/30 05:50:47;;;;;;;7.93;2.58;;;;;;;16.91;58.15;101035.56;5066382;28;20490;-75
2021/07/30 05:53:12;;;;;;;5.82;2.78;;;;;;;17.04;57.64;101039.50;5066312;28;20703;-75
2021/07/30 05:55:38;;;;;;;4.47;2.85;;;;;;;17.19;57.38;101034.75;5066318;28;20090;-75
2021/07/30 05:58:04;;;;;;;7.55;3.13;;;;;;;17.21;57.31;101032.56;5066126;28;20400;-75
2021/07/30 06:00:29;;;;;;;5.72;2.42;;;;;;;17.37;57.05;101035.13;5049511;28;20470;-76
2021/07/30 06:02:55;;;;;;;4.97;2.38;;;;;;;17.49;56.58;101035.56;5064449;28;20072;-75
2021/07/30 06:05:20;;;;;;;6.10;2.97;;;;;;;17.69;55.92;101024.53;5050469;28;20028;-75
2021/07/30 06:07:46;;;;;;;7.05;3.22;;;;;;;17.78;55.35;101028.22;5050019;28;20446;-75
2021/07/30 06:10:11;;;;;;;6.80;2.85;;;;;;;17.98;54.91;101032.59;5044186;28;20031;-75
2021/07/30 06:12:37;;;;;;;5.75;2.13;;;;;;;18.08;54.40;101023.50;5060851;28;20063;-75
2021/07/30 06:15:02;;;;;;;8.95;2.38;;;;;;;18.24;53.70;101027.63;5056593;28;20110;-75
2021/07/30 06:17:28;;;;;;;8.52;2.50;;;;;;;18.38;53.56;101025.00;5046436;28;20034;-75
2021/07/30 06:19:53;;;;;;;9.85;2.95;;;;;;;18.54;53.58;101028.28;5061586;28;20123;-75
2021/07/30 06:22:19;;;;;;;8.10;2.83;;;;;;;18.62;53.43;101035.75;5060404;28;20050;-75
2021/07/30 06:24:45;;;;;;;4.90;2.65;;;;;;;18.69;53.06;101028.09;5061696;28;20090;-76
2021/07/30 06:27:11;;;;;;;4.75;2.97;;;;;;;18.85;52.83;101034.06;5062882;28;20036;-76
2021/07/30 06:29:36;;;;;;;7.05;2.65;;;;;;;19.00;53.18;101029.19;5065509;28;20428;-75
2021/07/30 06:32:02;;;;;;;4.68;2.58;;;;;;;19.07;52.56;101030.72;5052354;28;20028;-76
2021/07/30 06:34:27;;;;;;;10.52;3.00;;;;;;;19.12;52.29;101023.28;5062795;28;20050;-75
2021/07/30 06:36:56;;;;;;;7.95;2.97;;;;;;;19.22;52.20;101019.59;5045943;28;20458;-76
2021/07/30 06:39:22;;;;;;;4.80;2.60;;;;;;;19.43;51.88;101020.03;5075969;27;21086;-76
2021/07/30 06:41:48;;;;;;;6.63;2.60;;;;;;;19.45;51.93;101013.19;5105377;27;20491;-75
2021/07/30 06:44:14;;;;;;;6.07;2.80;;;;;;;19.64;51.49;101015.84;5106332;27;20035;-76
2021/07/30 06:46:39;;;;;;;9.85;2.55;;;;;;;19.61;51.35;101017.25;5086797;27;20127;-76
2021/07/30 06:49:05;;;;;;;6.72;2.30;;;;;;;19.76;49.13;101008.00;5103445;27;20058;-76
2021/07/30 06:51:30;;;;;;;4.25;2.28;;;;;;;19.84;50.04;101018.16;5106004;27;20099;-76
2021/07/30 06:53:56;;;;;;;9.48;2.63;;;;;;;20.00;49.31;101010.47;5108347;27;20039;-75
2021/07/30 06:56:21;;;;;;;6.63;2.70;;;;;;;20.10;46.20;101006.72;5109094;27;20930;-75
2021/07/30 06:58:47;;;;;;;4.90;2.40;;;;;;;20.07;48.03;101007.34;5101248;27;20600;-75
2021/07/30 07:01:12;;;;;;;7.63;2.38;;;;;;;20.24;46.23;101018.38;5106650;27;20380;-75
2021/07/30 07:03:38;;;;;;;7.13;2.35;;;;;;;19.95;44.73;101013.31;5086961;27;20575;-76
2021/07/30 07:06:03;;;;;;;10.40;2.25;;;;;;;19.99;44.89;101013.50;5103544;27;20442;-76
2021/07/30 07:08:29;;;;;;;7.32;1.77;;;;;;;20.03;45.49;101009.06;5105071;27;20039;-76
2021/07/30 07:10:54;;;;;;;7.60;2.40;;;;;;;20.27;44.77;101020.47;5106249;27;21225;-76
2021/07/30 07:13:23;;;;;;;5.43;2.33;;;;;;;20.15;44.64;101015.59;5104926;27;21026;-76
2021/07/30 07:15:48;;;;;;;8.35;2.58;;;;;;;20.15;43.86;101018.31;5105564;27;20544;-76
2021/07/30 07:18:14;;;;;;;4.93;2.20;;;;;;;20.32;43.95;101017.66;5083146;27;20030;-76
2021/07/30 07:20:40;;;;;;;5.95;2.35;;;;;;;20.45;44.34;101007.88;5107576;27;20027;-75
2021/07/30 07:23:06;;;;;;;5.35;2.03;;;;;;;20.32;43.62;100995.09;5108601;27;20076;-76
2021/07/30 07:25:32;;;;;;;5.85;2.80;;;;;;;20.02;44.07;101007.44;5105735;27;20027;-76
2021/07/30 07:27:58;;;;;;;12.02;2.67;;;;;;;20.11;44.89;101003.72;5106262;27;20472;-75
2021/07/30 07:30:24;;;;;;;7.15;2.80;;;;;;;20.62;44.39;101001.75;5089320;27;20031;-76
2021/07/30 07:32:49;;;;;;;6.53;2.42;;;;;;;20.69;43.36;101002.94;5106203;27;20064;-76
2021/07/30 07:35:15;;;;;;;9.18;2.92;;;;;;;20.69;43.82;100997.50;5105568;27;20570;-76
2021/07/30 07:37:40;;;;;;;7.13;2.55;;;;;;;21.03;43.75;101004.28;5106003;27;20502;-76
2021/07/30 07:40:07;;;;;;;9.35;2.58;;;;;;;21.06;43.47;100992.75;5104852;27;20016;-76
2021/07/30 07:42:33;;;;;;;8.13;2.60;;;;;;;20.39;43.19;101006.34;5104019;27;20059;-76
2021/07/30 07:45:00;;;;;;;7.35;2.92;;;;;;;20.77;44.02;100999.47;5108591;27;20130;-75
2021/07/30 07:47:28;;;;;;;3.08;2.35;;;;;;;21.05;43.35;100986.50;5106546;27;20069;-76
2021/07/30 07:49:54;;;;;;;5.55;2.30;;;;;;;21.30;42.69;100982.31;5111133;27;20460;-76
2021/07/30 07:52:19;;;;;;;9.73;2.75;;;;;;;21.30;43.07;101000.59;5104691;27;20027;-75
2021/07/30 07:54:46;;;;;;;5.55;2.35;;;;;;;21.14;43.25;101002.91;5107431;27;20035;-75
2021/07/30 07:57:12;;;;;;;7.57;2.53;;;;;;;20.76;43.76;100997.88;5102923;27;20027;-76
2021/07/30 07:59:38;;;;;;;6.13;2.67;;;;;;;20.77;44.17;100994.03;5102037;27;20035;-75
2021/07/30 08:02:06;;;;;;;4.68;2.22;;;;;;;21.20;43.33;100995.41;5099386;27;20051;-75
2021/07/30 08:04:33;;;;;;;10.00;2.63;;;;;;;21.65;42.93;100990.63;5104159;27;20031;-75
2021/07/30 08:07:03;;;;;;;10.80;2.78;;;;;;;21.65;42.03;100982.44;5102454;27;20041;-75
2021/07/30 08:09:29;;;;;;;6.72;2.40;;;;;;;21.99;42.05;100979.00;5097398;27;20110;-75
2021/07/30 08:11:55;;;;;;;6.43;2.53;;;;;;;22.18;41.15;100978.72;5101885;27;20122;-75
2021/07/30 08:14:21;;;;;;;6.65;2.38;;;;;;;21.81;41.85;100983.63;5083928;27;20147;-75
2021/07/30 08:16:47;;;;;;;7.60;2.38;;;;;;;22.01;41.68;100979.47;5083245;27;20396;-75
2021/07/30 08:19:12;;;;;;;9.35;2.78;;;;;;;22.17;41.00;100969.72;5101254;27;20510;-75
2021/07/30 08:21:38;;;;;;;7.22;2.45;;;;;;;22.39;40.25;100978.88;5099715;27;21251;-75
2021/07/30 08:24:04;;;;;;;8.38;2.50;;;;;;;22.38;40.53;100972.63;5104423;27;20540;-75
2021/07/30 08:26:29;;;;;;;4.88;2.40;;;;;;;21.99;41.02;100974.34;5084833;27;21021;-76
2021/07/30 08:28:55;;;;;;;7.65;2.17;;;;;;;22.47;40.70;100978.91;5081878;27;20027;-76
2021/07/30 08:31:24;;;;;;;8.73;2.65;;;;;;;22.37;40.14;100976.47;5102677;27;20217;-76
2021/07/30 08:33:51;;;;;;;7.13;2.58;;;;;;;21.89;40.94;100982.81;5099219;27;20073;-75
2021/07/30 08:36:16;;;;;;;10.77;2.83;;;;;;;21.71;40.65;100973.78;5078190;27;20023;-76
2021/07/30 08:38:41;;;;;;;32.92;4.68;;;;;;;21.63;41.05;100971.06;5100619;27;20490;-76
2021/07/30 08:41:08;;;;;;;15.02;3.60;;;;;;;22.06;40.52;100970.34;5101285;27;20031;-75
2021/07/30 08:43:34;;;;;;;10.40;2.92;;;;;;;21.96;39.42;100983.16;5101841;27;20039;-76
2021/07/30 08:45:59;;;;;;;7.82;2.67;;;;;;;21.58;40.78;100984.84;5088033;27;20027;-76
2021/07/30 08:48:25;;;;;;;7.03;2.80;;;;;;;21.60;40.84;100975.22;5080939;27;20037;-75
2021/07/30 08:50:51;;;;;;;6.82;2.85;;;;;;;22.07;40.09;100975.50;5087166;27;20031;-76
2021/07/30 08:53:22;;;;;;;4.85;2.13;;;;;;;22.42;39.47;100973.56;5084874;27;20548;-76
2021/07/30 08:55:48;;;;;;;8.38;3.15;;;;;;;22.46;39.07;100971.03;5101181;27;20031;-76
2021/07/30 08:58:14;;;;;;;4.50;2.90;;;;;;;22.21;39.59;100961.69;5101701;27;20443;-76
2021/07/30 09:00:39;;;;;;;3.78;2.40;;;;;;;22.43;39.20;100968.91;5098594;27;20031;-76
2021/07/30 09:03:05;;;;;;;9.88;2.92;;;;;;;22.75;38.38;100973.06;5101829;27;20046;-76
2021/07/30 09:05:32;;;;;;;8.48;2.70;;;;;;;22.91;38.08;100977.72;5099726;27;20107;-75
2021/07/30 09:08:05;;;;;;;7.18;2.80;;;;;;;22.95;38.36;100972.41;5100667;28;20065;-76
2021/07/30 09:10:39;;;;;;;7.28;2.97;;;;;;;22.43;38.82;100971.66;5085474;28;20185;-76
2021/07/30 09:13:19;;;;;;;10.10;3.40;;;;;;;22.77;38.00;100965.34;5101806;28;20396;-76
2021/07/30 09:15:58;;;;;;;8.13;2.83;;;;;;;22.76;38.07;100970.00;5100292;27;20114;-76
2021/07/30 09:18:30;;;;;;;7.60;2.95;;;;;;;22.75;37.89;100975.78;5101579;28;20031;-76
2021/07/30 09:21:14;;;;;;;8.30;2.35;;;;;;;22.60;38.67;100966.16;5102107;28;20019;-76
2021/07/30 09:24:01;;;;;;;7.65;3.10;;;;;;;22.88;37.75;100959.25;5085909;28;20561;-76
2021/07/30 09:26:54;;;;;;;6.82;2.88;;;;;;;23.54;38.31;100960.75;5103045;28;20072;-76
2021/07/30 09:29:27;;;;;;;11.25;2.97;;;;;;;23.47;37.12;100962.06;5102819;28;20495;-76
2021/07/30 09:31:56;;;;;;;6.80;2.90;;;;;;;22.56;38.92;100968.75;5086725;28;20446;-76
2021/07/30 09:34:27;;;;;;;4.63;2.78;;;;;;;22.82;38.18;100965.22;5102220;28;20111;-76
2021/07/30 09:36:59;;;;;;;15.32;3.88;;;;;;;22.76;37.42;100958.28;5101926;28;20488;-76
2021/07/30 09:39:46;;;;;;;8.00;2.78;;;;;;;23.20;36.91;100955.13;5100133;28;20035;-76
2021/07/30 09:42:16;;;;;;;6.45;3.10;;;;;;;22.77;37.54;100960.69;5081456;28;20084;-76
2021/07/30 09:44:41;;;;;;;13.57;3.28;;;;;;;23.11;37.45;100945.34;5101565;28;20031;-76
2021/07/30 09:47:17;;;;;;;7.25;2.90;;;;;;;23.28;35.97;100947.22;5099655;27;20027;-76
2021/07/30 09:49:46;;;;;;;12.90;3.00;;;;;;;23.48;35.19;100951.94;5100449;28;20168;-76
2021/07/30 09:52:20;;;;;;;5.75;2.80;;;;;;;23.52;35.11;100942.75;5099809;27;20034;-76
2021/07/30 09:54:52;;;;;;;4.97;2.80;;;;;;;23.55;35.93;100945.97;5103657;27;20107;-76
2021/07/30 09:57:51;;;;;;;8.25;2.80;;;;;;;22.46;36.10;100939.06;5104802;27;21151;-76
2021/07/30 10:00:17;;;;;;;5.68;2.53;;;;;;;22.37;36.52;100927.34;5051504;27;20758;-77
2021/07/30 10:02:46;;;;;;;10.68;3.30;;;;;;;22.35;37.39;100931.53;5105465;27;20118;-76
2021/07/30 10:05:16;;;;;;;8.10;3.58;;;;;;;22.26;36.41;100934.25;5108178;27;20035;-76
2021/07/30 10:07:42;;;;;;;7.47;2.78;;;;;;;22.30;36.79;100929.78;5105729;27;20031;-76
2021/07/30 10:12:38;;;;;;;8.57;3.72;;;;;;;22.84;36.38;100938.38;5104586;27;20512;-76
2021/07/30 10:15:06;;;;;;;7.25;3.15;;;;;;;22.96;36.65;100930.28;5106478;27;21356;-75
2021/07/30 10:17:33;;;;;;;4.97;2.30;;;;;;;23.40;35.77;100928.19;5102956;27;20027;-76
2021/07/30 10:20:11;;;;;;;14.38;4.20;;;;;;;22.78;35.73;100934.16;5105103;27;20436;-76
2021/07/30 10:23:00;;;;;;;8.52;3.25;;;;;;;22.96;35.72;100919.34;5105147;27;20555;-76
2021/07/30 10:25:48;;;;;;;12.30;3.70;;;;;;;23.40;35.71;100917.25;5098995;27;20045;-76
2021/07/30 10:28:20;;;;;;;10.52;3.72;;;;;;;23.66;34.76;100925.31;5103049;27;20035;-76
2021/07/30 10:30:55;;;;;;;8.60;3.00;;;;;;;24.00;34.38;100918.78;5101638;27;20490;-76
2021/07/30 10:33:37;;;;;;;5.13;2.90;;;;;;;24.08;34.79;100916.00;5101213;27;20153;-76
2021/07/30 10:36:31;;;;;;;6.68;2.60;;;;;;;24.38;33.43;100908.50;5101624;27;20057;-76
2021/07/30 10:39:07;;;;;;;8.35;3.85;;;;;;;23.91;33.55;100907.13;5102300;27;20028;-76
2021/07/30 10:41:32;;;;;;;7.28;3.28;;;;;;;23.38;34.84;100905.84;5097767;27;20051;-76
2021/07/30 10:44:01;;;;;;;6.53;2.80;;;;;;;24.31;34.28;100896.50;5102154;27;20263;-76
2021/07/30 10:46:27;;;;;;;8.05;2.92;;;;;;;24.61;33.50;100900.72;5102437;27;20176;-76
2021/07/30 10:48:55;;;;;;;8.25;2.75;;;;;;;24.98;32.55;100890.59;5102498;27;20042;-75
2021/07/30 10:51:25;;;;;;;10.70;3.40;;;;;;;24.92;32.34;100889.22;5104042;27;20973;-76
2021/07/30 10:53:51;;;;;;;4.93;2.90;;;;;;;24.94;31.79;100886.13;5101424;27;20080;-75
2021/07/30 10:56:17;;;;;;;5.95;2.78;;;;;;;24.31;32.97;100901.97;5101701;27;20757;-76
2021/07/30 10:58:45;;;;;;;5.07;2.70;;;;;;;23.98;33.70;100893.69;5093868;27;20035;-76
2021/07/30 11:01:16;;;;;;;5.88;2.92;;;;;;;23.36;34.60;100883.50;5108966;27;20034;-76
2021/07/30 11:03:51;;;;;;;7.03;2.70;;;;;;;23.33;34.27;100884.13;5094877;27;20063;-76
2021/07/30 11:06:18;;;;;;;7.63;3.17;;;;;;;23.37;33.86;100882.38;5115904;27;20027;-76
2021/07/30 11:08:58;;;;;;;17.85;5.25;;;;;;;24.03;33.54;100893.50;5115790;27;20019;-76
2021/07/30 11:11:42;;;;;;;8.02;3.65;;;;;;;24.16;33.57;100873.25;5116218;27;20130;-76
2021/07/30 11:14:28;;;;;;;5.95;3.65;;;;;;;24.23;33.65;100869.97;5115250;27;20042;-76
2021/07/30 11:17:02;;;;;;;6.28;2.60;;;;;;;25.07;31.87;100868.56;5090439;27;20059;-76
2021/07/30 11:19:33;;;;;;;8.23;2.53;;;;;;;25.10;31.79;100848.69;5111798;27;20248;-76
2021/07/30 11:22:04;;;;;;;13.57;4.97;;;;;;;24.96;32.70;100854.50;5110911;27;20038;-75
2021/07/30 11:24:30;;;;;;;8.63;3.13;;;;;;;25.18;32.33;100869.72;5113692;27;20035;-75
2021/07/30 11:26:56;;;;;;;12.15;3.60;;;;;;;25.11;32.25;100865.94;5112174;27;20111;-76
2021/07/30 11:29:23;;;;;;;11.05;3.08;;;;;;;24.43;31.97;100862.88;5099133;27;20031;-75